createdAt,value
2023-01-13T00:15:54.188Z,1014.26
2023-01-13T00:44:30.158Z,1014.13
2023-01-13T01:13:26.079Z,1013.92
2023-01-13T01:42:09.233Z,1013.79
2023-01-13T02:10:53.772Z,1013.57
2023-01-13T02:39:41.819Z,1013.38
2023-01-13T03:08:36.741Z,1013.4
2023-01-13T03:37:27.586Z,1013.03
2023-01-13T04:06:19.370Z,1012.86
2023-01-13T04:35:00.216Z,1012.88
2023-01-13T05:03:57.510Z,1012.77
2023-01-13T05:32:51.644Z,1012.46
2023-01-13T06:01:45.450Z,1012.58
2023-01-13T06:30:33.638Z,1012.71
2023-01-13T06:59:03.181Z,1012.67
2023-01-13T07:27:35.065Z,1012.86
2023-01-13T07:56:13.356Z,1012.81
2023-01-13T08:24:50.515Z,1013.64
2023-01-13T08:53:22.071Z,1014.02
2023-01-13T09:21:59.265Z,1014.28
2023-01-13T09:50:28.544Z,1014.42
2023-01-13T10:19:03.637Z,1014.63
2023-01-13T10:47:23.498Z,1015.6
2023-01-13T11:15:40.217Z,1016.11
2023-01-13T11:44:12.177Z,1016.31
2023-01-13T12:12:50.216Z,1016.38
2023-01-13T12:41:22.458Z,1016.16
2023-01-13T13:09:58.059Z,1015.92
2023-01-13T13:38:34.986Z,1016.23
2023-01-13T14:07:11.037Z,1016.67
2023-01-13T14:35:35.418Z,1016.76
2023-01-13T15:04:17.028Z,1017.04
2023-01-13T15:32:37.917Z,1017.26
2023-01-13T16:01:06.078Z,1017.53
2023-01-13T16:29:28.849Z,1019.4
2023-01-13T16:57:43.649Z,1019.66
2023-01-13T17:26:15.747Z,1019.7
2023-01-13T17:54:52.838Z,1020.37
2023-01-13T18:23:24.380Z,1020.77
2023-01-13T18:51:58.801Z,1021.07
2023-01-13T19:20:28.360Z,1021.35
2023-01-13T19:49:09.303Z,1021.45
2023-01-13T20:17:42.571Z,1021.49
2023-01-13T20:46:15.988Z,1021.73
2023-01-13T21:14:48.247Z,1021.81
2023-01-13T21:43:15.285Z,1021.84
2023-01-13T22:11:53.607Z,1022.11
2023-01-13T22:40:18.744Z,1022.36
2023-01-13T23:08:46.340Z,1022.18
2023-01-13T23:37:07.133Z,1022.16
